METAR Data
IDs: Format: Raw Decoded Include TAF

Data at: 0144 UTC 12 May 2021

KOKK 120056Z AUTO 35008KT 10SM CLR 08/M01 A3034 RMK AO2 SLP278 T00831006
KOKK 112356Z AUTO 34009KT 10SM CLR 11/M01 A3032 RMK AO2 SLP272 T01061006 10139 20106 53012
KOKK 112256Z AUTO 35009KT 10SM CLR 12/M01 A3030 RMK AO2 SLP265 T01171011
KOKK 112156Z AUTO 33010KT 10SM CLR 12/M01 A3030 RMK AO2 SLP262 T01221011
KOKK 112056Z AUTO 34011KT 10SM FEW060 13/00 A3029 RMK AO2 SLP259 T01330000 56012
KOKK 111956Z AUTO 02011KT 10SM SCT055 13/01 A3030 RMK AO2 SLP266 T01330011
KOKK 111856Z AUTO 34014G18KT 10SM SCT055 13/01 A3031 RMK AO2 SLP267 T01330011
KOKK 111756Z AUTO 33013KT 10SM SCT049 12/01 A3032 RMK AO2 SLP273 T01220011 10128 20056 58003
KOKK 111656Z AUTO 36015KT 10SM SCT049 BKN055 12/01 A3034 RMK AO2 SLP278 T01220011
KOKK 111556Z AUTO 01011KT 10SM CLR 12/02 A3033 RMK AO2 SLP275 T01170022
KOKK 111456Z AUTO 04006KT 10SM CLR 10/02 A3033 RMK AO2 SLP276 T01000022 51015
KOKK 111356Z AUTO 03008KT 10SM CLR 09/02 A3032 RMK AO2 SLP270 T00890022
KOKK 111256Z AUTO 03007KT 10SM CLR 08/02 A3031 RMK AO2 SLP265 T00780022
KOKK 111156Z AUTO 02007KT 10SM BKN110 06/02 A3029 RMK AO2 SLP260 70006 T00560017 10078 20044 51021
KOKK 111056Z AUTO 35005KT 10SM SCT085 OVC110 04/02 A3027 RMK AO2 SLP254 T00440017
KOKK 110956Z AUTO 01004KT 10SM SCT085 OVC110 05/01 A3025 RMK AO2 SLP247 T00500011
KOKK 110856Z AUTO 36005KT 10SM BKN085 OVC100 06/02 A3022 RMK AO2 SLP238 T00560017 53011
KOKK 110756Z AUTO 02007KT 10SM OVC090 06/01 A3021 RMK AO2 SLP233 T00610011
KOKK 110656Z AUTO 36008KT 10SM OVC075 07/02 A3020 RMK AO2 SLP231 T00670022
KOKK 110556Z AUTO 01009KT 10SM OVC070 08/04 A3019 RMK AO2 SLP226 60005 T00780044 10106 20078 51003
KOKK 110456Z AUTO 02009KT 10SM OVC070 08/06 A3018 RMK AO2 RAB00E32 SLP225 P0000 T00780056
KOKK 110356Z AUTO 01011KT 10SM OVC075 09/07 A3020 RMK AO2 RAE48 SLP229 P0000 T00890072 401560022
KOKK 110256Z AUTO 34004KT 10SM -RA OVC065 09/09 A3018 RMK AO2 SLP225 P0001 60005 T00940089 53015
KOKK 110156Z AUTO 34006KT 10SM -RA OVC060 09/09 A3017 RMK AO2 SLP218 P0003 T00940089
KOKK 110056Z AUTO 32004KT 10SM -RA SCT050 OVC065 10/08 A3015 RMK AO2 SLP211 P0001 T01000083
KOKK 102356Z AUTO 33010G15KT 10SM -RA BKN045 OVC060 11/08 A3014 RMK AO2 SLP209 P0001 60001 T01060078 10156 20100 53003
KOKK 102256Z AUTO 34011KT 10SM -RA SCT048 BKN060 OVC080 11/08 A3012 RMK AO2 RAB31 SLP206 P0000 T01110078
KOKK 102156Z AUTO 25005KT 10SM SCT100 14/05 A3011 RMK AO2 SLP200 T01440050
KOKK 102056Z AUTO 35005KT 10SM FEW065 15/06 A3013 RMK AO2 SLP205 T01500056 58004
KOKK 101956Z AUTO 32007KT 10SM SCT060 BKN090 14/04 A3013 RMK AO2 SLP207 T01390044
KOKK 101856Z AUTO 27008KT 10SM BKN047 BKN065 BKN090 14/06 A3014 RMK AO2 SLP208 T01440056
KOKK 101756Z AUTO 29010KT 10SM SCT038 SCT100 14/06 A3014 RMK AO2 SLP209 T01390061 10139 20056 50000
KOKK 101656Z AUTO 28010KT 10SM FEW075 OVC120 13/06 A3015 RMK AO2 SLP212 T01280056
KOKK 101556Z AUTO 27012KT 10SM FEW110 12/05 A3015 RMK AO2 SLP213 T01220050
KOKK 101456Z AUTO 26010KT 10SM FEW110 11/06 A3014 RMK AO2 SLP208 T01060056 51006
KOKK 101356Z AUTO 26009KT 10SM CLR 09/04 A3014 RMK AO2 SLP209 T00890044